This is the latest recevied weather packets stored in our database for station/object WX7EM. If no packets are shown the sender has not sent any weather packets the latest 1 day(s).
| Time | Temp. | Humidity | Pressure | Rain* | Wind** | Luminosity | Snow |
|---|---|---|---|---|---|---|---|
| 1778020565 | 16.67° C | 76% | 1015.3 hPa | 0 mm | 0 m/s | 188 W/m² | - |
| 1778020261 | 16.67° C | 76% | 1015.4 hPa | 0 mm | 0 m/s | 190 W/m² | - |
| 1778019957 | 16.67° C | 75% | 1015.4 hPa | 0 mm | 0.89 m/s, 275° | 215 W/m² | - |
| 1778019654 | 16.67° C | 75% | 1015.5 hPa | 0 mm | 0.45 m/s, 114° | 228 W/m² | - |
| 1778019351 | 16.67° C | 75% | 1015.3 hPa | 0 mm | 0 m/s | 245 W/m² | - |
| 1778019047 | 16.11° C | 76% | 1015.4 hPa | 0 mm | 0.45 m/s, 151° | 246 W/m² | - |
| 1778018745 | 16.67° C | 75% | 1015.4 hPa | 0 mm | 0.89 m/s, 195° | 256 W/m² | - |
| 1778018442 | 16.67° C | 76% | 1015.5 hPa | 0 mm | 0.45 m/s, 173° | 259 W/m² | - |
| 1778018140 | 16.67° C | 74% | 1015.6 hPa | 0 mm | 0.89 m/s, 196° | 236 W/m² | - |
| 1778017838 | 16.11° C | 76% | 1015.6 hPa | 0 mm | 0.45 m/s, 203° | 243 W/m² | - |
| 1778017536 | 16.67° C | 75% | 1015.6 hPa | 0 mm | 0.89 m/s, 204° | 270 W/m² | - |
| 1778017232 | 16.67° C | 74% | 1015.7 hPa | 0 mm | 0.89 m/s, 185° | 295 W/m² | - |
| 1778016930 | 16.67° C | 75% | 1015.4 hPa | 0 mm | 1.79 m/s, 138° | 309 W/m² | - |
| 1778016626 | 16.67° C | 75% | 1015.6 hPa | 0 mm | 0.89 m/s, 171° | 302 W/m² | - |
| 1778016322 | 16.67° C | 74% | 1015.7 hPa | 0 mm | 0.45 m/s, 155° | 329 W/m² | - |
| 1778016020 | 16.67° C | 75% | 1015.7 hPa | 0 mm | 0.89 m/s, 209° | 345 W/m² | - |
| 1778015717 | 16.67° C | 74% | 1015.5 hPa | 0 mm | 0 m/s | 363 W/m² | - |
| 1778015413 | 16.67° C | 75% | 1015.8 hPa | 0 mm | 0.89 m/s, 246° | 379 W/m² | - |
| 1778015110 | 16.67° C | 75% | 1015.7 hPa | 0 mm | 0 m/s | 373 W/m² | - |
| 1778014807 | 16.11° C | 76% | 1015.7 hPa | 0 mm | 2.24 m/s, 258° | 375 W/m² | - |
| 1778014506 | 16.11° C | 76% | 1015.6 hPa | 0 mm | 2.24 m/s, 257° | 375 W/m² | - |
| 1778014202 | 16.11° C | 76% | 1015.8 hPa | 0 mm | 1.79 m/s, 215° | 368 W/m² | - |
| 1778013900 | 15.56° C | 77% | 1015.8 hPa | 0 mm | 1.34 m/s, 273° | 385 W/m² | - |
| 1778013597 | 15.56° C | 76% | 1015.9 hPa | 0 mm | 1.79 m/s, 268° | 359 W/m² | - |
| 1778013293 | 15.56° C | 77% | 1015.9 hPa | 0 mm | 1.79 m/s, 240° | 323 W/m² | - |
* Rain latest hour (hover to see other rain measurements)
** Current wind speed in m/s (hover to see current wind gust speed)